Time;durP1;ratioP1;P1;durP2;ratioP2;P2;SDS_P1;SDS_P2;PMS_P1;PMS_P2;Temp;Humidity;BMP_temperature;BMP_pressure;BME280_temperature;BME280_humidity;BME280_pressure;Samples;Min_cycle;Max_cycle;Signal;HPM_P1;HPM_P2
2022/07/31 00:01:53;;;;;;;4.70;4.20;;;21.40;87.10;;;;;;5052386;28;20790;-58
2022/07/31 00:04:23;;;;;;;5.03;4.53;;;21.40;85.90;;;;;;5052233;28;20933;-58
2022/07/31 00:06:52;;;;;;;5.97;5.03;;;21.20;86.00;;;;;;5054079;28;20495;-58
2022/07/31 00:09:19;;;;;;;4.90;4.50;;;21.30;87.80;;;;;;5056199;28;20484;-58
2022/07/31 00:11:46;;;;;;;6.50;4.20;;;21.30;87.80;;;;;;5056199;28;20524;-58
2022/07/31 00:14:14;;;;;;;5.10;4.53;;;21.30;88.20;;;;;;5056128;28;20451;-58
2022/07/31 00:16:41;;;;;;;4.47;4.07;;;21.30;87.70;;;;;;5055774;28;20445;-58
2022/07/31 00:19:08;;;;;;;4.90;4.23;;;21.30;86.90;;;;;;5056140;28;20451;-58
2022/07/31 00:21:35;;;;;;;5.13;4.63;;;21.20;87.20;;;;;;5055991;28;20611;-58
2022/07/31 00:24:04;;;;;;;6.10;4.60;;;21.10;87.70;;;;;;5055909;28;20444;-58
2022/07/31 00:26:31;;;;;;;4.90;4.50;;;21.00;88.40;;;;;;5055971;28;20520;-58
2022/07/31 00:28:58;;;;;;;5.30;4.80;;;21.00;88.60;;;;;;5055581;28;20819;-58
2022/07/31 00:31:25;;;;;;;6.10;4.73;;;21.00;88.50;;;;;;5055789;28;20479;-58
2022/07/31 00:33:53;;;;;;;7.23;5.60;;;21.10;88.60;;;;;;5055651;28;20953;-58
2022/07/31 00:36:20;;;;;;;6.50;4.70;;;21.20;89.20;;;;;;5055503;28;20853;-58
2022/07/31 00:38:47;;;;;;;5.10;4.70;;;21.20;88.20;;;;;;5055576;28;20483;-58
2022/07/31 00:41:16;;;;;;;6.47;5.87;;;21.30;89.10;;;;;;5055429;28;21048;-58
2022/07/31 00:43:43;;;;;;;7.93;6.00;;;21.30;89.40;;;;;;5055070;28;20535;-58
2022/07/31 00:46:10;;;;;;;5.97;5.43;;;21.20;90.10;;;;;;5055168;28;20493;-58
2022/07/31 00:48:37;;;;;;;6.30;5.80;;;21.10;90.50;;;;;;5055656;28;20453;-58
2022/07/31 00:51:04;;;;;;;5.67;5.17;;;21.10;91.30;;;;;;5055157;28;20496;-57
2022/07/31 00:53:31;;;;;;;10.63;5.60;;;21.10;92.00;;;;;;5055146;28;20450;-58
2022/07/31 00:55:59;;;;;;;9.70;6.10;;;21.10;92.30;;;;;;5055215;28;20449;-58
2022/07/31 00:58:27;;;;;;;8.80;6.73;;;21.20;93.40;;;;;;5055447;28;20508;-58
2022/07/31 01:00:55;;;;;;;7.20;6.23;;;21.20;93.50;;;;;;5054970;28;20468;-58
2022/07/31 01:03:22;;;;;;;6.47;5.87;;;21.20;94.20;;;;;;5055189;28;20456;-58
2022/07/31 01:05:49;;;;;;;6.70;6.10;;;21.20;94.60;;;;;;5055138;28;20981;-58
2022/07/31 01:08:16;;;;;;;6.40;5.80;;;21.10;95.10;;;;;;5054893;28;21007;-58
2022/07/31 01:10:52;;;;;;;7.30;6.60;;;21.10;95.40;;;;;;5055168;28;20564;-58
2022/07/31 01:13:31;;;;;;;8.50;6.37;;;21.00;95.50;;;;;;5055218;28;20432;-58
2022/07/31 01:16:01;;;;;;;7.50;6.77;;;20.90;95.00;;;;;;5054884;28;20973;-58
2022/07/31 01:18:37;;;;;;;13.90;5.80;;;20.60;95.50;;;;;;5053552;28;20485;-58
2022/07/31 01:21:07;;;;;;;7.13;5.97;;;20.50;96.00;;;;;;5054895;28;20548;-58
2022/07/31 01:23:56;;;;;;;5.93;5.43;;;20.50;96.00;;;;;;5054803;28;20433;-58
2022/07/31 01:26:38;;;;;;;6.00;5.50;;;20.60;96.40;;;;;;5054790;28;20470;-58
2022/07/31 01:29:15;;;;;;;12.20;6.00;;;20.50;96.30;;;;;;5054495;28;20525;-58
2022/07/31 01:31:47;;;;;;;5.90;5.40;;;20.30;96.50;;;;;;5054830;28;20534;-57
2022/07/31 01:34:23;;;;;;;6.40;5.77;;;20.20;97.10;;;;;;5054629;28;20409;-58
2022/07/31 01:36:58;;;;;;;6.20;5.30;;;20.10;97.40;;;;;;5054365;28;20429;-58
2022/07/31 01:39:26;;;;;;;5.90;5.27;;;20.20;97.50;;;;;;5054481;28;20469;-58
2022/07/31 01:41:56;;;;;;;10.30;6.13;;;20.10;98.10;;;;;;5054545;28;20450;-58
2022/07/31 01:44:27;;;;;;;6.73;5.50;;;20.30;98.60;;;;;;5054062;28;20461;-58
2022/07/31 01:46:55;;;;;;;6.50;5.90;;;20.40;98.80;;;;;;5054380;28;20536;-58
2022/07/31 01:49:23;;;;;;;6.20;5.50;;;20.30;99.50;;;;;;5053976;28;20448;-58
2022/07/31 01:51:52;;;;;;;6.43;5.63;;;20.30;99.10;;;;;;5054109;28;20540;-57
2022/07/31 01:54:24;;;;;;;6.43;5.83;;;20.10;99.40;;;;;;5054424;28;20426;-57
2022/07/31 01:56:52;;;;;;;7.93;5.87;;;19.90;99.90;;;;;;5054189;28;20532;-59
2022/07/31 01:59:21;;;;;;;7.47;5.90;;;19.90;99.90;;;;;;5053855;28;20449;-58
2022/07/31 02:01:51;;;;;;;7.50;5.80;;;19.90;99.90;;;;;;5054315;28;20817;-58
2022/07/31 02:04:19;;;;;;;7.80;5.40;;;19.90;99.90;;;;;;5053818;28;20449;-58
2022/07/31 02:06:49;;;;;;;7.73;6.63;;;19.90;99.90;;;;;;5053665;28;20484;-57
2022/07/31 02:09:19;;;;;;;6.77;6.10;;;19.90;99.90;;;;;;5054090;28;20547;-57
2022/07/31 02:11:47;;;;;;;7.33;6.63;;;20.00;99.90;;;;;;5053870;28;20435;-57
2022/07/31 02:14:16;;;;;;;6.67;6.00;;;20.10;99.90;;;;;;5053468;28;20544;-57
2022/07/31 02:16:44;;;;;;;6.30;5.70;;;20.10;99.90;;;;;;5053529;28;20459;-57
2022/07/31 02:19:14;;;;;;;8.00;6.00;;;20.10;99.90;;;;;;5053673;28;20959;-57
2022/07/31 02:21:41;;;;;;;7.90;6.40;;;19.90;99.90;;;;;;5053730;28;20505;-57
2022/07/31 02:24:09;;;;;;;8.63;7.20;;;19.70;99.90;;;;;;5053673;28;20453;-58
2022/07/31 02:26:37;;;;;;;6.83;6.23;;;19.70;99.90;;;;;;5053815;28;20626;-57
2022/07/31 02:29:06;;;;;;;7.27;6.57;;;19.70;99.90;;;;;;5053069;28;20910;-57
2022/07/31 02:31:35;;;;;;;7.20;6.60;;;19.70;99.90;;;;;;5053441;28;20829;-57
2022/07/31 02:34:03;;;;;;;7.80;7.10;;;19.80;99.90;;;;;;5053657;28;20440;-57
2022/07/31 02:36:35;;;;;;;7.27;6.30;;;19.80;99.90;;;;;;5053592;28;20453;-57
2022/07/31 02:39:03;;;;;;;7.97;7.10;;;19.80;99.90;;;;;;5053135;28;20440;-57
2022/07/31 02:41:31;;;;;;;10.93;6.73;;;19.80;99.90;;;;;;5053100;28;20476;-57
2022/07/31 02:43:58;;;;;;;7.20;6.47;;;19.80;99.90;;;;;;5052841;28;20480;-57
2022/07/31 02:46:26;;;;;;;8.77;6.93;;;19.70;99.90;;;;;;5052971;28;20607;-57
2022/07/31 02:48:54;;;;;;;7.90;7.10;;;19.80;99.90;;;;;;5053368;28;20445;-57
2022/07/31 02:51:22;;;;;;;10.97;7.07;;;19.90;99.90;;;;;;5053042;28;20472;-57
2022/07/31 02:53:51;;;;;;;7.30;6.70;;;19.80;99.90;;;;;;5053234;28;20449;-57
2022/07/31 02:56:18;;;;;;;7.43;6.83;;;19.80;99.90;;;;;;5053256;28;20473;-57
2022/07/31 02:58:45;;;;;;;7.17;6.47;;;19.80;99.90;;;;;;5052987;28;20951;-57
2022/07/31 03:01:13;;;;;;;8.77;6.90;;;19.40;99.90;;;;;;5053129;28;20476;-58
2022/07/31 03:03:41;;;;;;;7.40;6.67;;;19.40;99.90;;;;;;5052769;28;20450;-58
2022/07/31 03:06:09;;;;;;;7.30;6.60;;;19.50;99.90;;;;;;5053150;28;20481;-58
2022/07/31 03:08:36;;;;;;;7.60;6.90;;;19.60;99.90;;;;;;5053209;28;20500;-58
2022/07/31 03:11:04;;;;;;;7.23;6.70;;;19.70;99.90;;;;;;5053148;28;20921;-58
2022/07/31 03:13:33;;;;;;;7.37;6.70;;;19.60;99.90;;;;;;5052825;28;20468;-57
2022/07/31 03:16:02;;;;;;;9.63;6.60;;;19.30;99.90;;;;;;5053094;28;20479;-58
2022/07/31 03:18:31;;;;;;;7.17;6.47;;;19.30;99.90;;;;;;5052654;28;20458;-58
2022/07/31 03:20:58;;;;;;;6.90;6.40;;;19.30;99.90;;;;;;5052819;28;20471;-58
2022/07/31 03:23:34;;;;;;;6.93;6.43;;;19.30;99.90;;;;;;5053228;28;20821;-58
2022/07/31 03:26:02;;;;;;;6.80;6.30;;;19.30;99.90;;;;;;5052653;28;20512;-58
2022/07/31 03:28:31;;;;;;;7.93;6.63;;;19.20;99.90;;;;;;5052608;28;20533;-58
2022/07/31 03:30:58;;;;;;;6.87;6.27;;;19.20;99.90;;;;;;5052524;28;20556;-57
2022/07/31 03:33:25;;;;;;;6.80;6.17;;;19.10;99.90;;;;;;5052695;28;20544;-58
2022/07/31 03:35:53;;;;;;;7.40;6.70;;;19.00;99.90;;;;;;5052439;28;20933;-57
2022/07/31 03:38:20;;;;;;;7.60;6.80;;;19.00;99.90;;;;;;5052461;28;20445;-57
2022/07/31 03:40:47;;;;;;;7.03;6.43;;;18.90;99.90;;;;;;5052952;28;20487;-57
2022/07/31 03:43:17;;;;;;;6.40;5.90;;;19.00;99.90;;;;;;5056099;28;20485;-58
2022/07/31 03:45:47;;;;;;;6.77;6.03;;;19.10;99.90;;;;;;5056301;28;20545;-57
2022/07/31 03:48:14;;;;;;;6.77;6.17;;;19.20;99.90;;;;;;5056486;28;20535;-57
2022/07/31 03:50:42;;;;;;;6.60;5.93;;;19.30;99.90;;;;;;5056243;28;20468;-57
2022/07/31 03:53:10;;;;;;;10.73;6.80;;;19.40;99.90;;;;;;5056549;28;20945;-57
2022/07/31 03:55:38;;;;;;;8.10;5.63;;;19.50;99.90;;;;;;5056359;28;20961;-57
2022/07/31 03:58:07;;;;;;;6.90;6.20;;;19.40;99.90;;;;;;5057091;28;20449;-57
2022/07/31 04:00:35;;;;;;;6.80;6.20;;;19.30;99.90;;;;;;5056443;28;20473;-57
2022/07/31 04:03:08;;;;;;;7.20;6.50;;;19.10;99.90;;;;;;5056366;28;20449;-57
2022/07/31 04:05:35;;;;;;;7.67;6.83;;;19.00;99.90;;;;;;5056503;28;20436;-57
2022/07/31 04:08:02;;;;;;;7.60;6.80;;;19.00;99.90;;;;;;5055953;28;21012;-57
2022/07/31 04:10:29;;;;;;;11.50;6.50;;;19.00;99.90;;;;;;5056190;28;21090;-57
2022/07/31 04:12:57;;;;;;;7.70;6.90;;;19.00;99.90;;;;;;5056235;28;20472;-57
2022/07/31 04:15:24;;;;;;;7.73;6.33;;;19.10;99.90;;;;;;5056158;28;20532;-57
2022/07/31 04:17:51;;;;;;;6.83;6.00;;;19.20;99.90;;;;;;5056283;28;20482;-57
2022/07/31 04:20:20;;;;;;;7.23;6.53;;;19.20;99.90;;;;;;5056091;28;20505;-57
2022/07/31 04:22:48;;;;;;;6.70;6.03;;;19.00;99.90;;;;;;5055809;28;20429;-57
2022/07/31 04:25:15;;;;;;;8.60;5.77;;;18.90;99.90;;;;;;5056049;28;20445;-57
2022/07/31 04:27:43;;;;;;;8.83;6.90;;;18.80;99.90;;;;;;5055890;28;20485;-57
2022/07/31 04:30:11;;;;;;;7.10;6.40;;;18.80;99.90;;;;;;5055644;28;20469;-57
2022/07/31 04:32:39;;;;;;;7.70;5.83;;;18.80;99.90;;;;;;5055798;28;20445;-57
2022/07/31 04:35:08;;;;;;;5.90;5.50;;;18.90;99.90;;;;;;5055728;28;20539;-57
2022/07/31 04:37:36;;;;;;;6.80;6.10;;;18.90;99.90;;;;;;5055885;28;20540;-58
2022/07/31 04:40:04;;;;;;;6.37;5.47;;;18.90;99.90;;;;;;5055537;28;20534;-58
2022/07/31 04:42:31;;;;;;;6.80;5.80;;;19.00;99.90;;;;;;5055613;28;20453;-58
2022/07/31 04:44:58;;;;;;;5.77;5.37;;;19.20;99.90;;;;;;5055233;28;20481;-57
2022/07/31 04:47:25;;;;;;;5.60;5.20;;;19.30;99.90;;;;;;5055220;28;20491;-58
2022/07/31 04:49:53;;;;;;;7.60;5.93;;;19.40;99.90;;;;;;5055428;28;20497;-58
2022/07/31 04:52:20;;;;;;;7.10;6.07;;;19.50;99.90;;;;;;5055462;28;20454;-58
2022/07/31 04:54:48;;;;;;;7.00;6.30;;;19.60;99.90;;;;;;5055389;28;20536;-57
2022/07/31 04:57:15;;;;;;;7.57;5.60;;;19.70;99.90;;;;;;5055357;28;20449;-58
2022/07/31 04:59:43;;;;;;;6.97;6.17;;;19.70;99.90;;;;;;5055431;28;20500;-57
2022/07/31 05:02:10;;;;;;;5.40;4.87;;;19.70;99.90;;;;;;5055279;28;20457;-57
2022/07/31 05:04:37;;;;;;;6.23;5.70;;;19.80;99.90;;;;;;5054918;28;20445;-58
2022/07/31 05:07:04;;;;;;;5.50;5.10;;;19.80;99.90;;;;;;5055194;28;20555;-58
2022/07/31 05:09:34;;;;;;;6.17;5.67;;;19.80;99.90;;;;;;5054711;28;20446;-58
2022/07/31 05:12:02;;;;;;;9.07;5.50;;;19.70;99.90;;;;;;5055077;28;20507;-58
2022/07/31 05:14:30;;;;;;;6.33;5.73;;;19.80;99.90;;;;;;5054840;28;20981;-58
2022/07/31 05:16:57;;;;;;;7.47;5.00;;;20.00;99.90;;;;;;5055167;28;20532;-58
2022/07/31 05:19:28;;;;;;;5.70;5.20;;;20.20;99.90;;;;;;5054913;28;20556;-58
2022/07/31 05:21:58;;;;;;;9.20;5.27;;;20.20;99.90;;;;;;5054632;28;20440;-58
2022/07/31 05:24:25;;;;;;;5.07;4.67;;;20.20;99.90;;;;;;5054699;28;20513;-58
2022/07/31 05:26:52;;;;;;;5.20;4.70;;;20.30;99.90;;;;;;5054723;28;20559;-57
2022/07/31 05:29:21;;;;;;;5.73;5.13;;;20.40;99.90;;;;;;5054823;28;20528;-58
2022/07/31 05:31:48;;;;;;;7.47;5.00;;;20.50;99.90;;;;;;5054782;28;20451;-58
2022/07/31 05:34:15;;;;;;;4.80;4.30;;;20.50;99.90;;;;;;5054428;28;20533;-57
2022/07/31 05:36:42;;;;;;;7.53;5.70;;;20.50;99.90;;;;;;5054227;28;20946;-57
2022/07/31 05:39:11;;;;;;;5.37;4.93;;;20.50;99.90;;;;;;5054369;28;20460;-58
2022/07/31 05:41:38;;;;;;;5.40;4.90;;;20.50;99.90;;;;;;5054219;28;20973;-58
2022/07/31 05:44:05;;;;;;;5.97;5.37;;;20.50;99.90;;;;;;5053956;28;20509;-57
2022/07/31 05:46:34;;;;;;;6.27;5.43;;;20.60;99.90;;;;;;5054431;28;20536;-58
2022/07/31 05:49:01;;;;;;;4.87;4.47;;;20.50;99.90;;;;;;5054806;28;20776;-58
2022/07/31 05:51:29;;;;;;;6.17;5.57;;;20.70;99.90;;;;;;5054016;28;20476;-58
2022/07/31 05:53:56;;;;;;;5.37;4.80;;;20.70;99.90;;;;;;5054454;28;20806;-57
2022/07/31 05:56:24;;;;;;;5.50;4.90;;;20.80;99.90;;;;;;5054131;28;20449;-57
2022/07/31 05:58:52;;;;;;;4.70;4.30;;;20.90;99.90;;;;;;5053915;28;20464;-57
2022/07/31 06:01:19;;;;;;;5.30;4.90;;;20.80;99.90;;;;;;5054117;28;20519;-57
2022/07/31 06:03:48;;;;;;;5.00;4.60;;;21.00;99.90;;;;;;5053687;28;20532;-58
2022/07/31 06:06:15;;;;;;;6.93;5.00;;;21.20;99.90;;;;;;5054082;28;20471;-58
2022/07/31 06:08:42;;;;;;;7.03;5.03;;;21.20;99.90;;;;;;5053953;28;20492;-58
2022/07/31 06:11:09;;;;;;;5.20;4.73;;;21.30;99.90;;;;;;5053695;28;20998;-58
2022/07/31 06:13:36;;;;;;;8.30;5.30;;;21.50;99.90;;;;;;5053893;28;20453;-57
2022/07/31 06:16:04;;;;;;;4.80;4.40;;;21.60;99.90;;;;;;5053620;28;20446;-58
2022/07/31 06:18:31;;;;;;;4.77;4.37;;;21.60;99.90;;;;;;5053977;28;20484;-58
2022/07/31 06:20:59;;;;;;;5.60;4.70;;;21.60;99.90;;;;;;5053469;28;20469;-58
2022/07/31 06:23:27;;;;;;;4.97;4.53;;;21.60;99.90;;;;;;5053750;28;20543;-58
2022/07/31 06:25:54;;;;;;;4.53;4.13;;;21.50;99.90;;;;;;5053839;28;20527;-58
2022/07/31 06:28:21;;;;;;;6.47;4.47;;;21.50;99.90;;;;;;5053312;28;20473;-58
2022/07/31 06:30:49;;;;;;;5.40;4.60;;;21.50;99.90;;;;;;5053608;28;20984;-58
2022/07/31 06:33:16;;;;;;;6.63;4.60;;;21.70;99.90;;;;;;5053977;28;20481;-58
2022/07/31 06:35:43;;;;;;;4.50;4.10;;;21.80;99.90;;;;;;5053481;28;20451;-58
2022/07/31 06:38:11;;;;;;;5.20;4.50;;;21.90;99.90;;;;;;5053129;28;20477;-58
2022/07/31 06:40:39;;;;;;;5.87;4.77;;;21.90;99.90;;;;;;5053166;28;20469;-58
2022/07/31 06:43:06;;;;;;;5.13;4.73;;;22.00;99.90;;;;;;5053282;28;20481;-58
2022/07/31 06:45:33;;;;;;;5.23;4.80;;;22.10;99.90;;;;;;5053401;28;20436;-57
2022/07/31 06:48:00;;;;;;;5.47;4.97;;;22.20;99.90;;;;;;5053386;28;20484;-57
2022/07/31 06:50:27;;;;;;;5.67;5.00;;;22.20;99.90;;;;;;5053052;28;20469;-57
2022/07/31 06:52:55;;;;;;;4.90;4.50;;;22.30;99.90;;;;;;5053161;28;20476;-57
2022/07/31 06:55:23;;;;;;;5.93;4.93;;;22.30;99.90;;;;;;5053198;28;20453;-57
2022/07/31 06:57:50;;;;;;;4.73;4.27;;;22.30;99.90;;;;;;5053044;28;20981;-57
2022/07/31 07:00:19;;;;;;;5.00;4.53;;;22.50;99.90;;;;;;5053077;28;20579;-57
2022/07/31 07:02:46;;;;;;;5.20;4.70;;;22.50;99.90;;;;;;5052856;28;20453;-57
2022/07/31 07:05:13;;;;;;;9.07;4.90;;;22.60;99.90;;;;;;5052952;28;20960;-57
2022/07/31 07:07:40;;;;;;;5.47;4.97;;;22.60;99.90;;;;;;5053003;28;20481;-57
2022/07/31 07:10:07;;;;;;;5.70;5.10;;;22.70;99.90;;;;;;5052717;28;20575;-57
2022/07/31 07:12:36;;;;;;;5.23;4.83;;;22.70;99.90;;;;;;5053100;28;20457;-58
2022/07/31 07:15:04;;;;;;;5.17;4.77;;;22.90;99.90;;;;;;5052704;28;20455;-58
2022/07/31 07:17:31;;;;;;;5.43;4.97;;;23.00;99.90;;;;;;5052329;28;20448;-58
2022/07/31 07:19:59;;;;;;;8.73;5.50;;;22.90;99.90;;;;;;5052994;28;20962;-58
2022/07/31 07:22:26;;;;;;;8.70;5.07;;;23.00;99.90;;;;;;5052587;28;20951;-58
2022/07/31 07:24:53;;;;;;;5.00;4.60;;;23.10;99.90;;;;;;5052928;28;20503;-58
2022/07/31 07:27:20;;;;;;;5.30;4.50;;;23.20;99.90;;;;;;5052768;28;20465;-58
2022/07/31 07:29:49;;;;;;;5.47;4.83;;;23.30;99.90;;;;;;5052769;28;20523;-58
2022/07/31 07:32:16;;;;;;;5.00;4.60;;;23.50;99.90;;;;;;5052605;28;20426;-58
2022/07/31 07:34:43;;;;;;;5.03;4.37;;;23.70;99.90;;;;;;5053008;28;20879;-58
2022/07/31 07:37:10;;;;;;;5.20;4.70;;;23.60;99.90;;;;;;5052815;28;20495;-57
2022/07/31 07:39:37;;;;;;;4.73;4.40;;;23.80;99.90;;;;;;5052787;28;20879;-58
2022/07/31 07:42:04;;;;;;;8.80;4.57;;;24.00;99.90;;;;;;5052887;28;20864;-58
2022/07/31 07:44:32;;;;;;;4.83;4.40;;;24.00;99.30;;;;;;5052151;28;20480;-58
2022/07/31 07:47:00;;;;;;;7.70;4.33;;;24.00;99.50;;;;;;5052614;28;20453;-58
2022/07/31 07:49:27;;;;;;;4.90;4.50;;;24.10;99.80;;;;;;5052429;28;20434;-58
2022/07/31 07:51:55;;;;;;;5.87;4.87;;;24.20;99.90;;;;;;5052436;28;20975;-58
2022/07/31 07:54:22;;;;;;;6.90;4.53;;;24.20;99.90;;;;;;5052238;28;20485;-58
2022/07/31 07:56:50;;;;;;;6.53;4.63;;;24.40;99.90;;;;;;5052559;28;20527;-58
2022/07/31 07:59:17;;;;;;;5.53;5.03;;;24.40;99.90;;;;;;5052399;28;20449;-58
2022/07/31 08:01:44;;;;;;;5.40;4.67;;;24.30;99.90;;;;;;5052454;28;20871;-58
2022/07/31 08:04:13;;;;;;;5.23;4.73;;;24.30;99.90;;;;;;5052534;28;20532;-58
2022/07/31 08:06:40;;;;;;;6.47;4.77;;;24.30;99.90;;;;;;5052350;28;20880;-58
2022/07/31 08:09:07;;;;;;;7.00;5.00;;;24.40;99.90;;;;;;5052158;28;20493;-58
2022/07/31 08:11:34;;;;;;;5.57;5.07;;;24.40;99.90;;;;;;5052042;28;20800;-58
2022/07/31 08:14:01;;;;;;;6.73;4.80;;;24.40;99.90;;;;;;5052160;28;21019;-59
2022/07/31 08:16:29;;;;;;;4.90;4.43;;;24.40;99.90;;;;;;5052316;28;20448;-58
2022/07/31 08:18:56;;;;;;;4.20;3.80;;;24.40;99.90;;;;;;5052322;28;20453;-58
2022/07/31 08:21:25;;;;;;;5.17;4.77;;;24.30;99.90;;;;;;5051916;28;20529;-58
2022/07/31 08:23:52;;;;;;;4.40;4.07;;;24.30;99.90;;;;;;5051981;28;20932;-58
2022/07/31 08:26:19;;;;;;;5.80;4.90;;;24.40;99.40;;;;;;5051910;28;20449;-58
2022/07/31 08:28:46;;;;;;;7.63;4.70;;;24.90;99.10;;;;;;5055300;28;20559;-58
2022/07/31 08:31:14;;;;;;;4.70;4.30;;;25.50;98.30;;;;;;5055778;28;20824;-58
2022/07/31 08:33:41;;;;;;;5.77;4.10;;;26.00;97.90;;;;;;5055865;28;20805;-58
2022/07/31 08:36:08;;;;;;;5.70;3.87;;;26.20;97.10;;;;;;5055591;28;20453;-58
2022/07/31 08:38:38;;;;;;;4.07;3.80;;;26.80;97.10;;;;;;5055507;28;20441;-58
2022/07/31 08:41:05;;;;;;;5.10;4.17;;;27.70;94.60;;;;;;5055678;28;20481;-59
2022/07/31 08:43:32;;;;;;;3.97;3.67;;;27.90;93.10;;;;;;5054980;28;20843;-59
2022/07/31 08:46:02;;;;;;;4.13;3.80;;;28.30;92.20;;;;;;5055648;28;20540;-59
2022/07/31 08:48:30;;;;;;;4.40;4.00;;;;;;;;;;5055337;28;20552;-59
2022/07/31 08:50:59;;;;;;;4.03;3.73;;;28.90;92.00;;;;;;5055325;28;20468;-59
2022/07/31 08:53:28;;;;;;;3.90;3.60;;;29.30;91.40;;;;;;5055497;28;20538;-59
2022/07/31 08:55:57;;;;;;;4.97;3.90;;;29.50;90.00;;;;;;5054982;28;20452;-60
2022/07/31 08:58:24;;;;;;;4.13;3.73;;;29.10;87.60;;;;;;5054911;28;20452;-59
2022/07/31 09:00:51;;;;;;;4.07;3.60;;;29.00;87.60;;;;;;5055083;28;20465;-59
2022/07/31 09:03:18;;;;;;;3.83;3.53;;;29.80;84.90;;;;;;5055219;28;20895;-59
2022/07/31 09:05:46;;;;;;;6.50;3.70;;;30.80;83.40;;;;;;5055089;28;20543;-59
2022/07/31 09:08:13;;;;;;;3.97;3.67;;;31.00;79.50;;;;;;5055206;28;20587;-59
2022/07/31 09:10:40;;;;;;;4.13;3.77;;;30.50;80.70;;;;;;5055135;28;20483;-60
2022/07/31 09:13:15;;;;;;;3.80;3.40;;;30.40;79.90;;;;;;5054988;28;20453;-59
2022/07/31 09:15:43;;;;;;;9.50;4.53;;;30.70;79.00;;;;;;5055001;28;20463;-60
2022/07/31 09:18:18;;;;;;;5.60;4.83;;;30.30;78.20;;;;;;5055025;28;20445;-59
2022/07/31 09:20:55;;;;;;;4.10;3.70;;;30.70;78.90;;;;;;5054539;28;20987;-60
2022/07/31 09:23:23;;;;;;;4.97;4.57;;;30.40;79.30;;;;;;5054544;28;20901;-60
2022/07/31 09:25:55;;;;;;;5.73;3.70;;;30.20;79.00;;;;;;5054340;28;20441;-60
2022/07/31 09:28:33;;;;;;;3.83;3.40;;;30.70;78.50;;;;;;5054801;28;20836;-60
2022/07/31 09:31:01;;;;;;;4.67;4.27;;;30.40;73.60;;;;;;5054829;28;20465;-60
2022/07/31 09:33:29;;;;;;;3.60;3.23;;;30.60;76.60;;;;;;5054651;28;20528;-59
2022/07/31 09:35:57;;;;;;;3.70;3.40;;;31.20;71.50;;;;;;5054365;28;20453;-60
2022/07/31 09:38:32;;;;;;;3.50;3.20;;;31.50;71.30;;;;;;5054287;28;20851;-59
2022/07/31 09:41:09;;;;;;;4.27;3.80;;;32.20;68.40;;;;;;5054615;28;20477;-59
2022/07/31 09:43:38;;;;;;;3.10;2.90;;;32.60;66.70;;;;;;5054016;28;20480;-60
2022/07/31 09:46:07;;;;;;;3.80;3.27;;;33.20;65.80;;;;;;5053934;28;20532;-60
2022/07/31 09:48:34;;;;;;;3.70;3.10;;;;;;;;;;5054106;28;21086;-60
2022/07/31 09:51:03;;;;;;;4.17;3.77;;;33.90;60.90;;;;;;5054367;28;20480;-60
2022/07/31 09:53:40;;;;;;;3.40;3.10;;;33.80;59.30;;;;;;5054304;28;20480;-60
2022/07/31 09:56:11;;;;;;;3.00;2.70;;;34.10;59.10;;;;;;5054239;28;20457;-60
2022/07/31 09:58:40;;;;;;;4.13;2.50;;;33.50;58.50;;;;;;5053910;28;20425;-60
2022/07/31 10:01:09;;;;;;;3.43;3.07;;;33.40;57.40;;;;;;5053967;28;20474;-59
2022/07/31 10:03:38;;;;;;;3.27;2.97;;;32.60;57.50;;;;;;5053829;28;20533;-60
2022/07/31 10:06:06;;;;;;;3.20;2.70;;;31.70;58.00;;;;;;5053629;28;20481;-60
2022/07/31 10:08:35;;;;;;;3.47;3.17;;;31.60;58.70;;;;;;5053703;28;20481;-60
2022/07/31 10:11:03;;;;;;;3.53;3.23;;;31.70;58.30;;;;;;5054046;28;20929;-60
2022/07/31 10:13:33;;;;;;;3.53;3.07;;;31.50;57.90;;;;;;5053524;28;20926;-59
2022/07/31 10:16:03;;;;;;;4.20;3.10;;;31.90;57.80;;;;;;5053631;28;20442;-60
2022/07/31 10:18:34;;;;;;;4.30;3.70;;;31.90;58.20;;;;;;5053320;28;20446;-60
2022/07/31 10:21:04;;;;;;;5.10;3.00;;;31.70;58.70;;;;;;5053274;28;20469;-59
2022/07/31 10:23:34;;;;;;;6.50;3.80;;;31.90;58.20;;;;;;5053728;28;20449;-59
2022/07/31 10:26:02;;;;;;;4.23;3.10;;;;;;;;;;5053453;28;21013;-60
2022/07/31 10:28:29;;;;;;;3.73;2.87;;;31.10;58.20;;;;;;5053220;28;20480;-60
2022/07/31 10:30:57;;;;;;;4.20;3.43;;;31.10;58.80;;;;;;5053326;28;20465;-60
2022/07/31 10:33:26;;;;;;;3.00;2.80;;;30.90;58.10;;;;;;5053449;28;20488;-60
2022/07/31 10:36:01;;;;;;;4.37;2.70;;;31.20;58.90;;;;;;5053024;28;20446;-60
2022/07/31 10:38:33;;;;;;;2.30;2.10;;;32.10;58.50;;;;;;5053321;28;20503;-60
2022/07/31 10:41:06;;;;;;;3.97;2.57;;;32.20;56.40;;;;;;5053492;28;20473;-59
2022/07/31 10:43:44;;;;;;;3.97;2.80;;;32.00;56.30;;;;;;5053195;28;20472;-59
2022/07/31 10:46:11;;;;;;;3.00;2.77;;;31.50;56.60;;;;;;5052954;28;20940;-59
2022/07/31 10:48:50;;;;;;;2.60;2.40;;;31.00;56.50;;;;;;5052878;28;20491;-59
2022/07/31 10:51:18;;;;;;;3.43;2.90;;;30.90;56.70;;;;;;5052712;28;21007;-59
2022/07/31 10:53:54;;;;;;;3.17;2.53;;;30.50;56.50;;;;;;5053153;28;20532;-59
2022/07/31 10:56:21;;;;;;;3.27;2.97;;;30.20;58.40;;;;;;5052984;28;20516;-59
2022/07/31 10:58:49;;;;;;;3.13;2.83;;;30.10;58.30;;;;;;5052719;28;20475;-59
2022/07/31 11:01:17;;;;;;;5.40;2.73;;;29.70;57.60;;;;;;5052725;28;20472;-59
2022/07/31 11:03:47;;;;;;;3.53;3.20;;;29.70;58.40;;;;;;5053249;28;20541;-59
2022/07/31 11:06:15;;;;;;;2.57;2.37;;;29.50;58.70;;;;;;5052920;28;20994;-59
2022/07/31 11:08:44;;;;;;;2.87;2.63;;;29.40;58.70;;;;;;5052516;28;20491;-59
2022/07/31 11:11:12;;;;;;;3.07;2.37;;;29.60;58.20;;;;;;5053017;28;20508;-59
2022/07/31 11:13:47;;;;;;;2.93;2.70;;;29.60;57.70;;;;;;5053065;28;20445;-59
2022/07/31 11:16:15;;;;;;;3.20;2.50;;;29.40;58.00;;;;;;5052688;28;20448;-59
2022/07/31 11:18:44;;;;;;;2.70;2.50;;;29.50;58.20;;;;;;5052628;28;20528;-59
2022/07/31 11:21:13;;;;;;;4.20;2.67;;;29.50;59.60;;;;;;5052636;28;20505;-59
2022/07/31 11:23:41;;;;;;;2.63;2.43;;;;;;;;;;5052717;28;20453;-59
2022/07/31 11:26:09;;;;;;;2.80;2.57;;;30.50;58.20;;;;;;5052767;28;20464;-59
2022/07/31 11:28:36;;;;;;;6.20;3.50;;;30.90;58.10;;;;;;5052577;28;20477;-59
2022/07/31 11:31:05;;;;;;;3.53;2.67;;;30.90;58.70;;;;;;5052570;28;20469;-59
2022/07/31 11:33:35;;;;;;;2.90;2.70;;;31.00;58.50;;;;;;5052405;28;20453;-59
2022/07/31 11:36:10;;;;;;;3.10;2.90;;;31.00;58.80;;;;;;5052662;28;20445;-59
2022/07/31 11:38:40;;;;;;;3.40;3.00;;;31.20;57.90;;;;;;5052792;28;20825;-59
2022/07/31 11:41:07;;;;;;;3.57;3.27;;;31.00;58.30;;;;;;5052888;28;20476;-59
2022/07/31 11:43:36;;;;;;;4.03;2.90;;;30.70;57.90;;;;;;5052003;28;20801;-59
2022/07/31 11:46:04;;;;;;;3.70;3.10;;;30.20;57.70;;;;;;5052591;28;20481;-59
2022/07/31 11:48:31;;;;;;;2.80;2.60;;;29.90;58.30;;;;;;5052689;28;20532;-59
2022/07/31 11:51:00;;;;;;;5.43;2.73;;;29.40;57.70;;;;;;5052581;28;20469;-59
2022/07/31 11:53:27;;;;;;;3.80;2.77;;;29.40;59.60;;;;;;5052254;28;20951;-59
2022/07/31 11:55:58;;;;;;;3.73;2.87;;;29.60;58.60;;;;;;5052326;28;21013;-59
2022/07/31 11:58:26;;;;;;;3.47;3.17;;;29.70;58.40;;;;;;5052167;28;20437;-59
2022/07/31 12:00:59;;;;;;;3.20;2.77;;;29.70;59.10;;;;;;5052457;28;20508;-59
2022/07/31 12:03:31;;;;;;;4.57;2.97;;;30.40;58.70;;;;;;5055103;28;20448;-59
2022/07/31 12:05:58;;;;;;;3.10;2.90;;;30.90;58.00;;;;;;5056385;28;20437;-59
2022/07/31 12:08:26;;;;;;;3.83;3.30;;;31.60;57.90;;;;;;5055873;28;20449;-59
2022/07/31 12:10:55;;;;;;;4.33;2.60;;;32.10;58.30;;;;;;5056323;28;20568;-59
2022/07/31 12:13:24;;;;;;;3.10;2.60;;;32.40;56.90;;;;;;5056140;28;20460;-59
2022/07/31 12:15:55;;;;;;;4.13;2.80;;;32.80;55.90;;;;;;5056524;28;20432;-59
2022/07/31 12:18:23;;;;;;;3.73;2.83;;;32.70;56.40;;;;;;5055907;28;20507;-59
2022/07/31 12:20:56;;;;;;;2.83;2.50;;;32.70;55.90;;;;;;5056005;28;20465;-59
2022/07/31 12:23:24;;;;;;;3.90;2.50;;;31.50;55.50;;;;;;5056088;28;20809;-59
2022/07/31 12:25:52;;;;;;;3.53;2.60;;;31.10;57.40;;;;;;5055630;28;20810;-59
2022/07/31 12:28:21;;;;;;;3.03;2.63;;;31.20;56.60;;;;;;5055616;28;20536;-59
2022/07/31 12:30:58;;;;;;;2.50;2.30;;;31.10;56.50;;;;;;5055608;28;20491;-59
2022/07/31 12:33:26;;;;;;;3.73;3.17;;;31.70;57.20;;;;;;5056013;28;20429;-59
2022/07/31 12:35:54;;;;;;;3.50;2.63;;;32.20;55.80;;;;;;5055709;28;20548;-59
2022/07/31 12:38:26;;;;;;;4.30;2.63;;;31.80;55.50;;;;;;5055430;28;20925;-59
2022/07/31 12:41:03;;;;;;;3.40;2.40;;;31.70;55.50;;;;;;5055341;28;20485;-59
2022/07/31 12:43:32;;;;;;;4.57;2.77;;;31.70;56.20;;;;;;5055191;28;20491;-59
2022/07/31 12:46:03;;;;;;;3.47;3.17;;;31.30;55.70;;;;;;5055176;28;20488;-59
2022/07/31 12:48:31;;;;;;;2.87;2.67;;;30.70;56.20;;;;;;5055266;28;20899;-59
2022/07/31 12:50:59;;;;;;;2.70;2.50;;;30.20;56.30;;;;;;5055508;28;20465;-59
2022/07/31 12:53:28;;;;;;;2.80;2.60;;;30.10;57.80;;;;;;5055463;28;20452;-59
2022/07/31 12:55:55;;;;;;;2.93;2.67;;;29.90;58.60;;;;;;5055119;28;20984;-59